KNJK/NJK METAR and TAF weather

Enter ICAO airport designator
Station Type Date Time Source
KNJK METAR 2022/06/26 06:56 UTC NOAA

KNJK 260656Z AUTO 14009KT 10SM CLR 33/17 A2982 RMK AO2 SLP113 T03330167 $


Station Type Date Time Source
KNJK Decoded METAR 2022/06/26 06:56 UTC NOAA

El Centro, Naval Air Facility, CA, United States (KNJK) 32-49-30N 115-39-38W -13M
Jun 26, 2022 - 02:56 AM EDT / 2022.06.26 0656 UTC
Wind: from the SE (140 degrees) at 10 MPH (9 KT):0
Visibility: 10 mile(s):0
Sky conditions: clear
Temperature: 91.9 F (33.3 C)
Dew Point: 62.1 F (16.7 C)
Relative Humidity: 37%
Pressure (altimeter): 29.82 in. Hg (1009 hPa)
ob: KNJK 260656Z AUTO 14009KT 10SM CLR 33/17 A2982 RMK AO2 SLP113 T03330167
cycle: 7

Station Type Date Time Source
KNJK TAF 2022/06/25 23:56 UTC NOAA

TAF KNJK 2523/2623 VRB06KT 9999 FEW200 QNH2967INS
TEMPO 2600/2605 16010KT
FM260600 VRB06KT 9999 SKC QNH2981INS
FM261100 15006KT 9999 SKC QNH2971INS LAST NO
AMDS AFT 2523 NEXT 2715 T24/2612Z T44/2622Z FS30167

Example: see airport list